MTS Valour — MPVV8 — position and weather

sailwx.info

Track history (hours):
 
Tides and Currents Weather Stations Pressure Air Temp Water Temp Dewpoint Dewpoint Depression Visibility Wind Speed Wind Dir Waves Ship Positions

MTS Valour

Last reported at 2015-Sep-05 04:31 UTC. Time now 2015-Sep-05 05:50 UTC.
Position N 53°26' W 002°60'.

Length 24 m; draft 2.2 m.

Type: Tug. MMSI: 235040596.

Date/timePositionNaut miles runAvg speedWind from/ knotsBaromVisibWave heightAir tempDewpointWater temp
2015-Sep-05 04:31N 53°26' W 002°60'0 0.0
2015-Sep-05 03:31N 53°26' W 002°60'0 0.0
2015-Sep-05 02:31N 53°26' W 002°60'0 0.0
2015-Sep-05 01:19N 53°26' W 002°60'0 0.0
2015-Sep-05 00:31N 53°26' W 002°60'0 0.0
2015-Sep-04 23:31N 53°26' W 002°60'0 0.0
2015-Sep-04 22:31N 53°26' W 002°60'0 0.0
2015-Sep-04 21:31N 53°26' W 002°60'0 0.0
2015-Sep-04 20:31N 53°26' W 002°60'0 0.0
2015-Sep-04 19:31N 53°26' W 002°60'0 0.0
2015-Sep-04 18:31N 53°26' W 002°60'0 0.0
2015-Sep-04 17:31N 53°26' W 002°60'0 0.0
2015-Sep-04 16:31N 53°26' W 002°60'0 0.0
2015-Sep-04 15:31N 53°26' W 002°60'0 0.0
2015-Sep-04 14:31N 53°26' W 002°60'0 0.0
2015-Sep-04 13:31N 53°26' W 002°60'0 0.0
2015-Sep-04 12:31N 53°26' W 002°60'0 0.0
2015-Sep-04 11:31N 53°26' W 002°60'0 0.0
2015-Sep-04 10:31N 53°26' W 002°60'0 0.0
2015-Sep-04 09:31N 53°26' W 002°60'0 0.0
2015-Sep-04 08:31N 53°26' W 002°60'0 0.0
2015-Sep-04 07:31N 53°26' W 002°60'0 0.0
2015-Sep-04 06:31N 53°26' W 002°60'0 0.0
2015-Sep-04 05:31N 53°26' W 002°60'0 0.0
2015-Sep-04 04:31N 53°26' W 002°60'0 0.0
2015-Sep-04 03:31N 53°26' W 002°60'0 0.0
2015-Sep-04 02:31N 53°26' W 002°60'0 0.0
2015-Sep-04 01:22N 53°26' W 002°60'0 0.0
2015-Sep-04 00:31N 53°26' W 002°60'0 0.0
2015-Sep-03 23:31N 53°26' W 002°60'0 0.0
2015-Sep-03 22:31N 53°26' W 002°60'0 0.0
2015-Sep-03 21:28N 53°26' W 002°60'0 0.0
2015-Sep-03 20:31N 53°26' W 002°60'0 0.0
2015-Sep-03 19:31N 53°26' W 002°60'0 0.4
2015-Sep-03 18:33N 53°26' W 003°00'0 0.1
2015-Sep-03 17:30N 53°26' W 003°01'1 1.2
2015-Sep-03 16:33N 53°27' W 003°02'0 0.4
2015-Sep-03 15:31N 53°27' W 003°01'0 0.2
2015-Sep-03 14:25N 53°27' W 003°02'0 0.1
2015-Sep-03 13:30N 53°27' W 003°02'0 0.0
2015-Sep-03 12:33N 53°27' W 003°02'0 0.4
2015-Sep-03 11:33N 53°27' W 003°02'0 0.0
2015-Sep-03 10:33N 53°27' W 003°02'0 0.0
2015-Sep-03 09:33N 53°27' W 003°02'0 0.1
2015-Sep-03 08:31N 53°27' W 003°02'0 0.0
2015-Sep-03 07:31N 53°27' W 003°02'0 0.0
2015-Sep-03 06:31N 53°27' W 003°02'0 0.0
2015-Sep-03 05:28N 53°27' W 003°02'0 0.1
2015-Sep-03 04:33N 53°27' W 003°02'0 0.0
2015-Sep-03 03:33N 53°27' W 003°02'0 0.0
2015-Sep-03 02:33N 53°27' W 003°02'0 0.0
2015-Sep-03 01:33N 53°27' W 003°02'0 0.0
2015-Sep-03 00:33N 53°27' W 003°02'0 0.0
2015-Sep-02 23:33N 53°27' W 003°02'0 0.0
2015-Sep-02 22:33N 53°27' W 003°02'0 0.0
2015-Sep-02 21:33N 53°27' W 003°02'0 0.0
2015-Sep-02 20:33N 53°27' W 003°02'0 0.0
2015-Sep-02 19:30N 53°27' W 003°02'0 0.0
2015-Sep-02 18:30N 53°27' W 003°02'0 0.0
2015-Sep-02 17:30N 53°27' W 003°02'0 0.0
2015-Sep-02 16:33N 53°27' W 003°02'0 0.0
2015-Sep-02 15:33N 53°27' W 003°02'0 0.0
2015-Sep-02 14:33N 53°27' W 003°02'0 0.2
2015-Sep-02 13:33N 53°27' W 003°01'1 1.0
2015-Sep-02 12:33N 53°26' W 003°01'1 0.9
2015-Sep-02 11:33N 53°27' W 003°02'0 0.1
2015-Sep-02 10:31N 53°27' W 003°02'0 0.0
2015-Sep-02 09:31N 53°27' W 003°02'0 0.5
2015-Sep-02 08:31N 53°27' W 003°01'0 0.2
2015-Sep-02 07:33N 53°27' W 003°01'0 0.2
2015-Sep-02 06:28N 53°27' W 003°01'1 1.0
2015-Sep-02 05:33N 53°26' W 003°00'0 0.3
2015-Sep-02 04:32N 53°26' W 002°60'0 0.0
2015-Sep-02 03:32N 53°26' W 002°60'0 0.0
2015-Sep-02 02:32N 53°26' W 002°60'0 0.0
2015-Sep-02 01:32N 53°26' W 002°60'0 0.0
2015-Sep-02 00:32N 53°26' W 002°60'0 0.4
2015-Sep-01 23:33N 53°26' W 003°01'0 0.1
2015-Sep-01 22:32N 53°26' W 003°01'1 1.2
2015-Sep-01 21:32N 53°27' W 003°02'0 0.0
2015-Sep-01 20:32N 53°27' W 003°02'0 0.0
2015-Sep-01 19:32N 53°27' W 003°02'0 0.1
2015-Sep-01 18:33N 53°28' W 003°02'0 0.1
2015-Sep-01 17:30N 53°27' W 003°02'0 0.0
2015-Sep-01 16:33N 53°27' W 003°02'0 0.0
2015-Sep-01 15:33N 53°27' W 003°02'0 0.0
2015-Sep-01 14:33N 53°27' W 003°02'0 0.0
2015-Sep-01 13:30N 53°27' W 003°02'0 0.0
2015-Sep-01 12:33N 53°27' W 003°02'0 0.0
2015-Sep-01 11:33N 53°27' W 003°02'0 0.0
2015-Sep-01 10:33N 53°27' W 003°02'0 0.0
2015-Sep-01 09:33N 53°27' W 003°02'0 0.0
2015-Sep-01 08:30N 53°27' W 003°02'0 0.0
2015-Sep-01 07:33N 53°27' W 003°02'0 0.0
2015-Sep-01 06:33N 53°27' W 003°02'0 0.0
2015-Sep-01 05:33N 53°27' W 003°02'0 0.0
2015-Sep-01 04:33N 53°27' W 003°02'0 0.0
2015-Sep-01 03:33N 53°27' W 003°02'0 0.0
2015-Sep-01 02:33N 53°27' W 003°02'0 0.0
2015-Sep-01 01:30N 53°27' W 003°02'0 0.0
2015-Sep-01 00:33N 53°27' W 003°02'0 0.0
2015-Aug-31 23:33N 53°27' W 003°02'0 0.0
2015-Aug-31 22:33N 53°27' W 003°02'0 0.0
2015-Aug-31 21:33N 53°27' W 003°02'0 0.0
2015-Aug-31 20:30N 53°27' W 003°02'0 0.0
2015-Aug-31 19:30N 53°27' W 003°02'0 0.0
2015-Aug-31 18:33N 53°27' W 003°02'0 0.0
2015-Aug-31 17:30N 53°27' W 003°02'0 0.0
2015-Aug-31 16:33N 53°27' W 003°02'0 0.0
2015-Aug-31 15:33N 53°27' W 003°02'0 0.0
2015-Aug-31 14:33N 53°27' W 003°02'1 1.2
2015-Aug-31 13:33N 53°26' W 003°01'1 0.7
2015-Aug-31 12:31N 53°27' W 003°01'0 0.0
2015-Aug-31 11:28N 53°27' W 003°01'1 0.8
2015-Aug-31 10:33N 53°26' W 003°01'1 1.1
2015-Aug-31 09:29N 53°27' W 003°02'0 0.0
2015-Aug-31 08:29N 53°27' W 003°02'0 0.0
2015-Aug-31 07:32N 53°27' W 003°02'0 0.0
2015-Aug-31 06:27N 53°27' W 003°02'0 0.0
2015-Aug-31 05:33N 53°27' W 003°02'0 0.0
2015-Aug-31 04:33N 53°27' W 003°02'0 0.0
2015-Aug-31 03:33N 53°27' W 003°02'0 0.0
2015-Aug-31 02:33N 53°27' W 003°02'0 0.0
2015-Aug-31 01:33N 53°27' W 003°02'0 0.0
2015-Aug-31 00:33N 53°27' W 003°02'0 0.0
2015-Aug-30 23:33N 53°27' W 003°02'0 0.0
2015-Aug-30 22:33N 53°27' W 003°02'0 0.0
2015-Aug-30 21:33N 53°27' W 003°02'0 0.0
2015-Aug-30 20:33N 53°27' W 003°02'0 0.0
2015-Aug-30 19:33N 53°27' W 003°02'0 0.0
2015-Aug-30 18:33N 53°27' W 003°02'0 0.0
2015-Aug-30 17:30N 53°27' W 003°02'0 0.0
2015-Aug-30 16:33N 53°27' W 003°02'0 0.0
2015-Aug-30 15:30N 53°27' W 003°02'0 0.0
2015-Aug-30 14:33N 53°27' W 003°02'0 0.0
2015-Aug-30 13:33N 53°27' W 003°02'0 0.0
2015-Aug-30 12:33N 53°27' W 003°02'1 1.0
2015-Aug-30 11:27N 53°26' W 003°01'1 0.9
2015-Aug-30 10:31N 53°27' W 003°01'0 0.1
2015-Aug-30 09:30N 53°27' W 003°01'0 0.0
2015-Aug-30 08:33N 53°27' W 003°01'0 0.1
2015-Aug-30 07:33N 53°27' W 003°01'1 0.6
2015-Aug-30 06:32N 53°27' W 003°02'0 0.0
2015-Aug-30 05:32N 53°27' W 003°02'1 0.5
2015-Aug-30 04:29N 53°27' W 003°01'1 0.6
2015-Aug-30 03:31N 53°27' W 003°02'0 0.0
2015-Aug-30 02:31N 53°27' W 003°02'0 0.0
2015-Aug-30 01:28N 53°27' W 003°02'0 0.0
2015-Aug-30 00:31N 53°27' W 003°02'0 0.0
2015-Aug-29 23:31N 53°27' W 003°02'0 0.5
2015-Aug-29 22:30N 53°27' W 003°01'0 0.2
2015-Aug-29 21:32N 53°27' W 003°01'0 0.2
2015-Aug-29 20:33N 53°27' W 003°01'1 0.5
2015-Aug-29 19:29N 53°27' W 003°02'0 0.0
2015-Aug-29 18:26N 53°27' W 003°02'0 0.0
2015-Aug-29 17:32N 53°27' W 003°02'0 0.0
2015-Aug-29 16:32N 53°27' W 003°02'0 0.0
2015-Aug-29 15:32N 53°27' W 003°02'0 0.0
2015-Aug-29 14:32N 53°27' W 003°02'0 0.0
2015-Aug-29 13:32N 53°27' W 003°02'0 0.0
2015-Aug-29 12:33N 53°27' W 003°02'0 0.0
2015-Aug-29 11:33N 53°27' W 003°02'0 0.5
2015-Aug-29 10:33N 53°27' W 003°01'0 0.1
2015-Aug-29 09:33N 53°27' W 003°01'0 0.1
2015-Aug-29 08:33N 53°27' W 003°01'1 0.8
2015-Aug-29 07:33N 53°26' W 003°01'1 1.3
2015-Aug-29 06:33N 53°27' W 003°02'0 0.1
2015-Aug-29 05:33N 53°27' W 003°02'0 0.0
2015-Aug-29 04:33N 53°27' W 003°02'0 0.0
2015-Aug-29 03:33N 53°27' W 003°02'0 0.0
2015-Aug-29 02:33N 53°27' W 003°02'0 0.0
2015-Aug-29 01:33N 53°27' W 003°02'0 0.0
2015-Aug-29 00:33N 53°27' W 003°02'0 0.0
2015-Aug-28 23:33N 53°27' W 003°02'0 0.0
2015-Aug-28 22:33N 53°27' W 003°02'0 0.0
2015-Aug-28 21:33N 53°27' W 003°02'0 0.0
2015-Aug-28 20:33N 53°27' W 003°02'0 0.0
2015-Aug-28 19:33N 53°27' W 003°02'0 0.0
2015-Aug-28 18:33N 53°27' W 003°02'0 0.4
2015-Aug-28 17:33N 53°27' W 003°01'0 0.1
2015-Aug-28 16:33N 53°27' W 003°01'0 0.0
2015-Aug-28 15:33N 53°27' W 003°01'0 0.0
2015-Aug-28 14:33N 53°27' W 003°01'0 0.0
2015-Aug-28 13:33N 53°27' W 003°01'0 0.1
2015-Aug-28 12:33N 53°27' W 003°01'0 0.5
2015-Aug-28 11:31N 53°27' W 003°02'0 0.0
2015-Aug-28 10:31N 53°27' W 003°02'0 0.0
2015-Aug-28 09:33N 53°27' W 003°02'0 0.0
2015-Aug-28 08:33N 53°27' W 003°02'0 0.1
2015-Aug-28 07:33N 53°27' W 003°02'0 0.0
2015-Aug-28 06:33N 53°27' W 003°02'0 0.0
2015-Aug-28 05:33N 53°27' W 003°02'0 0.0
2015-Aug-28 04:33N 53°27' W 003°02'1 0.5
2015-Aug-28 03:33N 53°27' W 003°01'0 0.0
2015-Aug-28 02:33N 53°27' W 003°01'0 0.0
2015-Aug-28 01:33N 53°27' W 003°01'0 0.0
2015-Aug-28 00:33N 53°27' W 003°01'1 0.5
2015-Aug-27 23:33N 53°27' W 003°01'1 1.2
2015-Aug-27 22:33N 53°28' W 003°02'0 0.0
2015-Aug-27 21:33N 53°28' W 003°02'0 0.0
2015-Aug-27 20:33N 53°28' W 003°02'0 0.0
2015-Aug-27 19:33N 53°28' W 003°02'0 0.1
2015-Aug-27 18:33N 53°27' W 003°02'1 1.2
2015-Aug-27 17:33N 53°26' W 003°01'1 0.6
2015-Aug-27 16:33N 53°27' W 003°01'0 0.0
2015-Aug-27 15:33N 53°27' W 003°01'0 0.0
2015-Aug-27 14:33N 53°27' W 003°01'0 0.0
2015-Aug-27 13:33N 53°27' W 003°01'0 0.0
2015-Aug-27 12:33N 53°27' W 003°01'1 0.6
2015-Aug-27 11:33N 53°27' W 003°02'0 0.0
2015-Aug-27 10:33N 53°27' W 003°02'1 1.1
2015-Aug-27 09:33N 53°26' W 003°01'0 0.4
2015-Aug-27 08:33N 53°27' W 003°01'0 0.4
2015-Aug-27 07:33N 53°27' W 003°01'1 0.6
2015-Aug-27 06:33N 53°27' W 003°01'1 1.0
2015-Aug-27 05:33N 53°27' W 003°02'0 0.1
2015-Aug-27 04:33N 53°27' W 003°01'2 1.6
2015-Aug-27 03:33N 53°26' W 002°60'0 0.0
2015-Aug-27 02:33N 53°26' W 002°60'0 0.0
2015-Aug-27 01:33N 53°26' W 002°60'0 0.0
2015-Aug-27 00:33N 53°26' W 002°60'0 0.0
2015-Aug-26 23:33N 53°26' W 002°60'0 0.0
2015-Aug-26 22:33N 53°26' W 002°60'0 0.0
2015-Aug-26 21:33N 53°26' W 002°60'0 0.0
2015-Aug-26 20:33N 53°26' W 002°60'0 0.0
2015-Aug-26 19:33N 53°26' W 002°60'2 1.7
2015-Aug-26 18:33N 53°27' W 003°02'0 0.0
2015-Aug-26 17:33N 53°27' W 003°02'0 0.4
2015-Aug-26 16:33N 53°27' W 003°01'0 0.3
2015-Aug-26 15:33N 53°27' W 003°01'0 0.1
2015-Aug-26 14:33N 53°27' W 003°01'0 0.0
2015-Aug-26 13:33N 53°27' W 003°01'0 0.1
2015-Aug-26 12:33N 53°27' W 003°01'1 0.5
2015-Aug-26 11:33N 53°27' W 003°02'0 0.0
2015-Aug-26 10:33N 53°27' W 003°02'0 0.0
2015-Aug-26 09:33N 53°27' W 003°02'0 0.0
2015-Aug-26 08:33N 53°27' W 003°02'0 0.0
2015-Aug-26 07:33N 53°27' W 003°02'0 0.0
2015-Aug-26 06:33N 53°27' W 003°02'0 0.0
2015-Aug-26 05:33N 53°27' W 003°02'0 0.0
2015-Aug-26 04:33N 53°27' W 003°02'  
Track history (hours):
 
Tides and Currents Weather Stations Pressure Air Temp Water Temp Dewpoint Dewpoint Depression Visibility Wind Speed Wind Dir Waves Ship Positions

MTS Valour

Last reported at 2015-Sep-05 04:31 UTC. Time now 2015-Sep-05 05:50 UTC.
Position N 53°26' W 002°60'.

Length 24 m; draft 2.2 m.

Type: Tug. MMSI: 235040596.

Date/timePositionNaut miles runAvg speedWind from/ knotsBaromVisibWave heightAir tempDewpointWater temp
2015-Sep-05 04:31N 53°26' W 002°60'0 0.0
2015-Sep-05 03:31N 53°26' W 002°60'0 0.0
2015-Sep-05 02:31N 53°26' W 002°60'0 0.0
2015-Sep-05 01:19N 53°26' W 002°60'0 0.0
2015-Sep-05 00:31N 53°26' W 002°60'0 0.0
2015-Sep-04 23:31N 53°26' W 002°60'0 0.0
2015-Sep-04 22:31N 53°26' W 002°60'0 0.0
2015-Sep-04 21:31N 53°26' W 002°60'0 0.0
2015-Sep-04 20:31N 53°26' W 002°60'0 0.0
2015-Sep-04 19:31N 53°26' W 002°60'0 0.0
2015-Sep-04 18:31N 53°26' W 002°60'0 0.0
2015-Sep-04 17:31N 53°26' W 002°60'0 0.0
2015-Sep-04 16:31N 53°26' W 002°60'0 0.0
2015-Sep-04 15:31N 53°26' W 002°60'0 0.0
2015-Sep-04 14:31N 53°26' W 002°60'0 0.0
2015-Sep-04 13:31N 53°26' W 002°60'0 0.0
2015-Sep-04 12:31N 53°26' W 002°60'0 0.0
2015-Sep-04 11:31N 53°26' W 002°60'0 0.0
2015-Sep-04 10:31N 53°26' W 002°60'0 0.0
2015-Sep-04 09:31N 53°26' W 002°60'0 0.0
2015-Sep-04 08:31N 53°26' W 002°60'0 0.0
2015-Sep-04 07:31N 53°26' W 002°60'0 0.0
2015-Sep-04 06:31N 53°26' W 002°60'0 0.0
2015-Sep-04 05:31N 53°26' W 002°60'0 0.0
2015-Sep-04 04:31N 53°26' W 002°60'0 0.0
2015-Sep-04 03:31N 53°26' W 002°60'0 0.0
2015-Sep-04 02:31N 53°26' W 002°60'0 0.0
2015-Sep-04 01:22N 53°26' W 002°60'0 0.0
2015-Sep-04 00:31N 53°26' W 002°60'0 0.0
2015-Sep-03 23:31N 53°26' W 002°60'0 0.0
2015-Sep-03 22:31N 53°26' W 002°60'0 0.0
2015-Sep-03 21:28N 53°26' W 002°60'0 0.0
2015-Sep-03 20:31N 53°26' W 002°60'0 0.0
2015-Sep-03 19:31N 53°26' W 002°60'0 0.4
2015-Sep-03 18:33N 53°26' W 003°00'0 0.1
2015-Sep-03 17:30N 53°26' W 003°01'1 1.2
2015-Sep-03 16:33N 53°27' W 003°02'0 0.4
2015-Sep-03 15:31N 53°27' W 003°01'0 0.2
2015-Sep-03 14:25N 53°27' W 003°02'0 0.1
2015-Sep-03 13:30N 53°27' W 003°02'0 0.0
2015-Sep-03 12:33N 53°27' W 003°02'0 0.4
2015-Sep-03 11:33N 53°27' W 003°02'0 0.0
2015-Sep-03 10:33N 53°27' W 003°02'0 0.0
2015-Sep-03 09:33N 53°27' W 003°02'0 0.1
2015-Sep-03 08:31N 53°27' W 003°02'0 0.0
2015-Sep-03 07:31N 53°27' W 003°02'0 0.0
2015-Sep-03 06:31N 53°27' W 003°02'0 0.0
2015-Sep-03 05:28N 53°27' W 003°02'0 0.1
2015-Sep-03 04:33N 53°27' W 003°02'0 0.0
2015-Sep-03 03:33N 53°27' W 003°02'0 0.0
2015-Sep-03 02:33N 53°27' W 003°02'0 0.0
2015-Sep-03 01:33N 53°27' W 003°02'0 0.0
2015-Sep-03 00:33N 53°27' W 003°02'0 0.0
2015-Sep-02 23:33N 53°27' W 003°02'0 0.0
2015-Sep-02 22:33N 53°27' W 003°02'0 0.0
2015-Sep-02 21:33N 53°27' W 003°02'0 0.0
2015-Sep-02 20:33N 53°27' W 003°02'0 0.0
2015-Sep-02 19:30N 53°27' W 003°02'0 0.0
2015-Sep-02 18:30N 53°27' W 003°02'0 0.0
2015-Sep-02 17:30N 53°27' W 003°02'0 0.0
2015-Sep-02 16:33N 53°27' W 003°02'0 0.0
2015-Sep-02 15:33N 53°27' W 003°02'0 0.0
2015-Sep-02 14:33N 53°27' W 003°02'0 0.2
2015-Sep-02 13:33N 53°27' W 003°01'1 1.0
2015-Sep-02 12:33N 53°26' W 003°01'1 0.9
2015-Sep-02 11:33N 53°27' W 003°02'0 0.1
2015-Sep-02 10:31N 53°27' W 003°02'0 0.0
2015-Sep-02 09:31N 53°27' W 003°02'0 0.5
2015-Sep-02 08:31N 53°27' W 003°01'0 0.2
2015-Sep-02 07:33N 53°27' W 003°01'0 0.2
2015-Sep-02 06:28N 53°27' W 003°01'1 1.0
2015-Sep-02 05:33N 53°26' W 003°00'0 0.3
2015-Sep-02 04:32N 53°26' W 002°60'0 0.0
2015-Sep-02 03:32N 53°26' W 002°60'0 0.0
2015-Sep-02 02:32N 53°26' W 002°60'0 0.0
2015-Sep-02 01:32N 53°26' W 002°60'0 0.0
2015-Sep-02 00:32N 53°26' W 002°60'0 0.4
2015-Sep-01 23:33N 53°26' W 003°01'0 0.1
2015-Sep-01 22:32N 53°26' W 003°01'1 1.2
2015-Sep-01 21:32N 53°27' W 003°02'0 0.0
2015-Sep-01 20:32N 53°27' W 003°02'0 0.0
2015-Sep-01 19:32N 53°27' W 003°02'0 0.1
2015-Sep-01 18:33N 53°28' W 003°02'0 0.1
2015-Sep-01 17:30N 53°27' W 003°02'0 0.0
2015-Sep-01 16:33N 53°27' W 003°02'0 0.0
2015-Sep-01 15:33N 53°27' W 003°02'0 0.0
2015-Sep-01 14:33N 53°27' W 003°02'0 0.0
2015-Sep-01 13:30N 53°27' W 003°02'0 0.0
2015-Sep-01 12:33N 53°27' W 003°02'0 0.0
2015-Sep-01 11:33N 53°27' W 003°02'0 0.0
2015-Sep-01 10:33N 53°27' W 003°02'0 0.0
2015-Sep-01 09:33N 53°27' W 003°02'0 0.0
2015-Sep-01 08:30N 53°27' W 003°02'0 0.0
2015-Sep-01 07:33N 53°27' W 003°02'0 0.0
2015-Sep-01 06:33N 53°27' W 003°02'0 0.0
2015-Sep-01 05:33N 53°27' W 003°02'0 0.0
2015-Sep-01 04:33N 53°27' W 003°02'0 0.0
2015-Sep-01 03:33N 53°27' W 003°02'0 0.0
2015-Sep-01 02:33N 53°27' W 003°02'0 0.0
2015-Sep-01 01:30N 53°27' W 003°02'0 0.0
2015-Sep-01 00:33N 53°27' W 003°02'0 0.0
2015-Aug-31 23:33N 53°27' W 003°02'0 0.0
2015-Aug-31 22:33N 53°27' W 003°02'0 0.0
2015-Aug-31 21:33N 53°27' W 003°02'0 0.0
2015-Aug-31 20:30N 53°27' W 003°02'0 0.0
2015-Aug-31 19:30N 53°27' W 003°02'0 0.0
2015-Aug-31 18:33N 53°27' W 003°02'0 0.0
2015-Aug-31 17:30N 53°27' W 003°02'0 0.0
2015-Aug-31 16:33N 53°27' W 003°02'0 0.0
2015-Aug-31 15:33N 53°27' W 003°02'0 0.0
2015-Aug-31 14:33N 53°27' W 003°02'1 1.2
2015-Aug-31 13:33N 53°26' W 003°01'1 0.7
2015-Aug-31 12:31N 53°27' W 003°01'0 0.0
2015-Aug-31 11:28N 53°27' W 003°01'1 0.8
2015-Aug-31 10:33N 53°26' W 003°01'1 1.1
2015-Aug-31 09:29N 53°27' W 003°02'0 0.0
2015-Aug-31 08:29N 53°27' W 003°02'0 0.0
2015-Aug-31 07:32N 53°27' W 003°02'0 0.0
2015-Aug-31 06:27N 53°27' W 003°02'0 0.0
2015-Aug-31 05:33N 53°27' W 003°02'0 0.0
2015-Aug-31 04:33N 53°27' W 003°02'0 0.0
2015-Aug-31 03:33N 53°27' W 003°02'0 0.0
2015-Aug-31 02:33N 53°27' W 003°02'0 0.0
2015-Aug-31 01:33N 53°27' W 003°02'0 0.0
2015-Aug-31 00:33N 53°27' W 003°02'0 0.0
2015-Aug-30 23:33N 53°27' W 003°02'0 0.0
2015-Aug-30 22:33N 53°27' W 003°02'0 0.0
2015-Aug-30 21:33N 53°27' W 003°02'0 0.0
2015-Aug-30 20:33N 53°27' W 003°02'0 0.0
2015-Aug-30 19:33N 53°27' W 003°02'0 0.0
2015-Aug-30 18:33N 53°27' W 003°02'0 0.0
2015-Aug-30 17:30N 53°27' W 003°02'0 0.0
2015-Aug-30 16:33N 53°27' W 003°02'0 0.0
2015-Aug-30 15:30N 53°27' W 003°02'0 0.0
2015-Aug-30 14:33N 53°27' W 003°02'0 0.0
2015-Aug-30 13:33N 53°27' W 003°02'0 0.0
2015-Aug-30 12:33N 53°27' W 003°02'1 1.0
2015-Aug-30 11:27N 53°26' W 003°01'1 0.9
2015-Aug-30 10:31N 53°27' W 003°01'0 0.1
2015-Aug-30 09:30N 53°27' W 003°01'0 0.0
2015-Aug-30 08:33N 53°27' W 003°01'0 0.1
2015-Aug-30 07:33N 53°27' W 003°01'1 0.6
2015-Aug-30 06:32N 53°27' W 003°02'0 0.0
2015-Aug-30 05:32N 53°27' W 003°02'1 0.5
2015-Aug-30 04:29N 53°27' W 003°01'1 0.6
2015-Aug-30 03:31N 53°27' W 003°02'0 0.0
2015-Aug-30 02:31N 53°27' W 003°02'0 0.0
2015-Aug-30 01:28N 53°27' W 003°02'0 0.0
2015-Aug-30 00:31N 53°27' W 003°02'0 0.0
2015-Aug-29 23:31N 53°27' W 003°02'0 0.5
2015-Aug-29 22:30N 53°27' W 003°01'0 0.2
2015-Aug-29 21:32N 53°27' W 003°01'0 0.2
2015-Aug-29 20:33N 53°27' W 003°01'1 0.5
2015-Aug-29 19:29N 53°27' W 003°02'0 0.0
2015-Aug-29 18:26N 53°27' W 003°02'0 0.0
2015-Aug-29 17:32N 53°27' W 003°02'0 0.0
2015-Aug-29 16:32N 53°27' W 003°02'0 0.0
2015-Aug-29 15:32N 53°27' W 003°02'0 0.0
2015-Aug-29 14:32N 53°27' W 003°02'0 0.0
2015-Aug-29 13:32N 53°27' W 003°02'0 0.0
2015-Aug-29 12:33N 53°27' W 003°02'0 0.0
2015-Aug-29 11:33N 53°27' W 003°02'0 0.5
2015-Aug-29 10:33N 53°27' W 003°01'0 0.1
2015-Aug-29 09:33N 53°27' W 003°01'0 0.1
2015-Aug-29 08:33N 53°27' W 003°01'1 0.8
2015-Aug-29 07:33N 53°26' W 003°01'1 1.3
2015-Aug-29 06:33N 53°27' W 003°02'0 0.1
2015-Aug-29 05:33N 53°27' W 003°02'0 0.0
2015-Aug-29 04:33N 53°27' W 003°02'0 0.0
2015-Aug-29 03:33N 53°27' W 003°02'0 0.0
2015-Aug-29 02:33N 53°27' W 003°02'0 0.0
2015-Aug-29 01:33N 53°27' W 003°02'0 0.0
2015-Aug-29 00:33N 53°27' W 003°02'0 0.0
2015-Aug-28 23:33N 53°27' W 003°02'0 0.0
2015-Aug-28 22:33N 53°27' W 003°02'0 0.0
2015-Aug-28 21:33N 53°27' W 003°02'0 0.0
2015-Aug-28 20:33N 53°27' W 003°02'0 0.0
2015-Aug-28 19:33N 53°27' W 003°02'0 0.0
2015-Aug-28 18:33N 53°27' W 003°02'0 0.4
2015-Aug-28 17:33N 53°27' W 003°01'0 0.1
2015-Aug-28 16:33N 53°27' W 003°01'0 0.0
2015-Aug-28 15:33N 53°27' W 003°01'0 0.0
2015-Aug-28 14:33N 53°27' W 003°01'0 0.0
2015-Aug-28 13:33N 53°27' W 003°01'0 0.1
2015-Aug-28 12:33N 53°27' W 003°01'0 0.5
2015-Aug-28 11:31N 53°27' W 003°02'0 0.0
2015-Aug-28 10:31N 53°27' W 003°02'0 0.0
2015-Aug-28 09:33N 53°27' W 003°02'0 0.0
2015-Aug-28 08:33N 53°27' W 003°02'0 0.1
2015-Aug-28 07:33N 53°27' W 003°02'0 0.0
2015-Aug-28 06:33N 53°27' W 003°02'0 0.0
2015-Aug-28 05:33N 53°27' W 003°02'0 0.0
2015-Aug-28 04:33N 53°27' W 003°02'1 0.5
2015-Aug-28 03:33N 53°27' W 003°01'0 0.0
2015-Aug-28 02:33N 53°27' W 003°01'0 0.0
2015-Aug-28 01:33N 53°27' W 003°01'0 0.0
2015-Aug-28 00:33N 53°27' W 003°01'1 0.5
2015-Aug-27 23:33N 53°27' W 003°01'1 1.2
2015-Aug-27 22:33N 53°28' W 003°02'0 0.0
2015-Aug-27 21:33N 53°28' W 003°02'0 0.0
2015-Aug-27 20:33N 53°28' W 003°02'0 0.0
2015-Aug-27 19:33N 53°28' W 003°02'0 0.1
2015-Aug-27 18:33N 53°27' W 003°02'1 1.2
2015-Aug-27 17:33N 53°26' W 003°01'1 0.6
2015-Aug-27 16:33N 53°27' W 003°01'0 0.0
2015-Aug-27 15:33N 53°27' W 003°01'0 0.0
2015-Aug-27 14:33N 53°27' W 003°01'0 0.0
2015-Aug-27 13:33N 53°27' W 003°01'0 0.0
2015-Aug-27 12:33N 53°27' W 003°01'1 0.6
2015-Aug-27 11:33N 53°27' W 003°02'0 0.0
2015-Aug-27 10:33N 53°27' W 003°02'1 1.1
2015-Aug-27 09:33N 53°26' W 003°01'0 0.4
2015-Aug-27 08:33N 53°27' W 003°01'0 0.4
2015-Aug-27 07:33N 53°27' W 003°01'1 0.6
2015-Aug-27 06:33N 53°27' W 003°01'1 1.0
2015-Aug-27 05:33N 53°27' W 003°02'0 0.1
2015-Aug-27 04:33N 53°27' W 003°01'2 1.6
2015-Aug-27 03:33N 53°26' W 002°60'0 0.0
2015-Aug-27 02:33N 53°26' W 002°60'0 0.0
2015-Aug-27 01:33N 53°26' W 002°60'0 0.0
2015-Aug-27 00:33N 53°26' W 002°60'0 0.0
2015-Aug-26 23:33N 53°26' W 002°60'0 0.0
2015-Aug-26 22:33N 53°26' W 002°60'0 0.0
2015-Aug-26 21:33N 53°26' W 002°60'0 0.0
2015-Aug-26 20:33N 53°26' W 002°60'0 0.0
2015-Aug-26 19:33N 53°26' W 002°60'2 1.7
2015-Aug-26 18:33N 53°27' W 003°02'0 0.0
2015-Aug-26 17:33N 53°27' W 003°02'0 0.4
2015-Aug-26 16:33N 53°27' W 003°01'0 0.3
2015-Aug-26 15:33N 53°27' W 003°01'0 0.1
2015-Aug-26 14:33N 53°27' W 003°01'0 0.0
2015-Aug-26 13:33N 53°27' W 003°01'0 0.1
2015-Aug-26 12:33N 53°27' W 003°01'1 0.5
2015-Aug-26 11:33N 53°27' W 003°02'0 0.0
2015-Aug-26 10:33N 53°27' W 003°02'0 0.0
2015-Aug-26 09:33N 53°27' W 003°02'0 0.0
2015-Aug-26 08:33N 53°27' W 003°02'0 0.0
2015-Aug-26 07:33N 53°27' W 003°02'0 0.0
2015-Aug-26 06:33N 53°27' W 003°02'0 0.0
2015-Aug-26 05:33N 53°27' W 003°02'0 0.0
2015-Aug-26 04:33N 53°27' W 003°02'  

Dump ship's entire track history